sensor_id;sensor_type;location;lat;lon;timestamp;temperature;humidity
8595;DHT22;4335;48.860;9.198;2022-12-17T00:01:19;-2.90;99.90
8595;DHT22;4335;48.860;9.198;2022-12-17T00:04:10;-2.90;99.90
8595;DHT22;4335;48.860;9.198;2022-12-17T00:06:54;-2.90;99.90
8595;DHT22;4335;48.860;9.198;2022-12-17T00:09:42;-2.90;99.90
8595;DHT22;4335;48.860;9.198;2022-12-17T00:12:26;-2.90;99.90
8595;DHT22;4335;48.860;9.198;2022-12-17T00:15:12;-2.90;99.90
8595;DHT22;4335;48.860;9.198;2022-12-17T00:18:01;-3.00;99.90
8595;DHT22;4335;48.860;9.198;2022-12-17T00:20:51;-3.00;99.90
8595;DHT22;4335;48.860;9.198;2022-12-17T00:23:35;-3.00;99.90
8595;DHT22;4335;48.860;9.198;2022-12-17T00:26:20;-3.10;99.90
8595;DHT22;4335;48.860;9.198;2022-12-17T00:29:08;-3.10;99.90
8595;DHT22;4335;48.860;9.198;2022-12-17T00:31:56;-3.10;99.90
8595;DHT22;4335;48.860;9.198;2022-12-17T00:34:43;-3.10;99.90
8595;DHT22;4335;48.860;9.198;2022-12-17T00:37:31;-3.10;99.90
8595;DHT22;4335;48.860;9.198;2022-12-17T00:40:16;-3.10;99.90
8595;DHT22;4335;48.860;9.198;2022-12-17T00:43:01;-3.10;99.90
8595;DHT22;4335;48.860;9.198;2022-12-17T00:45:45;-3.20;99.90
8595;DHT22;4335;48.860;9.198;2022-12-17T00:48:34;-3.20;99.90
8595;DHT22;4335;48.860;9.198;2022-12-17T00:51:19;-3.20;99.90
8595;DHT22;4335;48.860;9.198;2022-12-17T00:54:05;-3.30;99.90
8595;DHT22;4335;48.860;9.198;2022-12-17T00:56:51;-3.30;99.90
8595;DHT22;4335;48.860;9.198;2022-12-17T00:59:37;-3.40;99.90
8595;DHT22;4335;48.860;9.198;2022-12-17T01:02:20;-3.40;99.90
8595;DHT22;4335;48.860;9.198;2022-12-17T01:05:07;-3.50;99.90
8595;DHT22;4335;48.860;9.198;2022-12-17T01:07:52;-3.50;99.90
8595;DHT22;4335;48.860;9.198;2022-12-17T01:10:36;-3.60;99.90
8595;DHT22;4335;48.860;9.198;2022-12-17T01:13:21;-3.60;99.90
8595;DHT22;4335;48.860;9.198;2022-12-17T01:16:08;-3.70;99.90
8595;DHT22;4335;48.860;9.198;2022-12-17T01:18:53;-3.70;99.90
8595;DHT22;4335;48.860;9.198;2022-12-17T01:21:39;-3.80;99.90
8595;DHT22;4335;48.860;9.198;2022-12-17T01:24:25;-3.90;99.90
8595;DHT22;4335;48.860;9.198;2022-12-17T01:27:16;-3.90;99.90
8595;DHT22;4335;48.860;9.198;2022-12-17T01:30:01;-4.00;99.90
8595;DHT22;4335;48.860;9.198;2022-12-17T01:32:45;-4.00;99.90
8595;DHT22;4335;48.860;9.198;2022-12-17T01:35:33;-4.10;99.90
8595;DHT22;4335;48.860;9.198;2022-12-17T01:38:19;-4.10;99.90
8595;DHT22;4335;48.860;9.198;2022-12-17T01:41:04;-4.10;99.90
8595;DHT22;4335;48.860;9.198;2022-12-17T01:43:49;-4.10;99.90
8595;DHT22;4335;48.860;9.198;2022-12-17T01:46:36;-4.10;99.90
8595;DHT22;4335;48.860;9.198;2022-12-17T01:49:24;-4.20;99.90
8595;DHT22;4335;48.860;9.198;2022-12-17T01:52:11;-4.10;99.90
8595;DHT22;4335;48.860;9.198;2022-12-17T01:54:58;-4.20;99.90
8595;DHT22;4335;48.860;9.198;2022-12-17T01:57:43;-4.20;99.90
8595;DHT22;4335;48.860;9.198;2022-12-17T02:00:31;-4.20;99.90
8595;DHT22;4335;48.860;9.198;2022-12-17T02:03:17;-4.20;99.90
8595;DHT22;4335;48.860;9.198;2022-12-17T02:06:06;-4.20;99.90
8595;DHT22;4335;48.860;9.198;2022-12-17T02:09:00;-4.20;99.90
8595;DHT22;4335;48.860;9.198;2022-12-17T02:11:58;-4.20;99.90
8595;DHT22;4335;48.860;9.198;2022-12-17T02:14:50;-4.20;99.90
8595;DHT22;4335;48.860;9.198;2022-12-17T02:17:40;-4.20;99.90
8595;DHT22;4335;48.860;9.198;2022-12-17T02:20:29;-4.20;99.90
8595;DHT22;4335;48.860;9.198;2022-12-17T02:23:30;-4.20;99.90
8595;DHT22;4335;48.860;9.198;2022-12-17T02:26:29;-4.20;99.90
8595;DHT22;4335;48.860;9.198;2022-12-17T02:29:29;-4.20;99.90
8595;DHT22;4335;48.860;9.198;2022-12-17T02:32:18;-4.20;99.90
8595;DHT22;4335;48.860;9.198;2022-12-17T02:35:13;-4.30;99.90
8595;DHT22;4335;48.860;9.198;2022-12-17T02:37:59;-4.30;99.90
8595;DHT22;4335;48.860;9.198;2022-12-17T02:40:44;-4.30;99.90
8595;DHT22;4335;48.860;9.198;2022-12-17T02:43:32;-4.30;99.90
8595;DHT22;4335;48.860;9.198;2022-12-17T02:46:20;-4.30;99.90
8595;DHT22;4335;48.860;9.198;2022-12-17T02:49:05;-4.30;99.90
8595;DHT22;4335;48.860;9.198;2022-12-17T02:51:50;-4.30;99.90
8595;DHT22;4335;48.860;9.198;2022-12-17T02:54:34;-4.30;99.90
8595;DHT22;4335;48.860;9.198;2022-12-17T02:57:20;-4.30;99.90
8595;DHT22;4335;48.860;9.198;2022-12-17T03:00:15;-4.30;99.90
8595;DHT22;4335;48.860;9.198;2022-12-17T03:03:00;-4.30;99.90
8595;DHT22;4335;48.860;9.198;2022-12-17T03:05:52;-4.30;99.90
8595;DHT22;4335;48.860;9.198;2022-12-17T03:08:43;-4.30;99.90
8595;DHT22;4335;48.860;9.198;2022-12-17T03:11:28;-4.30;99.90
8595;DHT22;4335;48.860;9.198;2022-12-17T03:14:13;-4.30;99.90
8595;DHT22;4335;48.860;9.198;2022-12-17T03:17:07;-4.30;99.90
8595;DHT22;4335;48.860;9.198;2022-12-17T03:19:55;-4.30;99.90
8595;DHT22;4335;48.860;9.198;2022-12-17T03:23:01;-4.30;99.90
8595;DHT22;4335;48.860;9.198;2022-12-17T03:25:45;-4.20;99.90
8595;DHT22;4335;48.860;9.198;2022-12-17T03:28:30;-4.30;99.90
8595;DHT22;4335;48.860;9.198;2022-12-17T03:31:15;-4.20;99.90
8595;DHT22;4335;48.860;9.198;2022-12-17T03:34:01;-4.20;99.90
8595;DHT22;4335;48.860;9.198;2022-12-17T03:36:45;-4.20;99.90
8595;DHT22;4335;48.860;9.198;2022-12-17T03:39:30;-4.20;99.90
8595;DHT22;4335;48.860;9.198;2022-12-17T03:42:14;-4.20;99.90
8595;DHT22;4335;48.860;9.198;2022-12-17T03:45:02;-4.20;99.90
8595;DHT22;4335;48.860;9.198;2022-12-17T03:47:46;-4.20;99.90
8595;DHT22;4335;48.860;9.198;2022-12-17T03:50:32;-4.10;99.90
8595;DHT22;4335;48.860;9.198;2022-12-17T03:53:17;-4.10;99.90
8595;DHT22;4335;48.860;9.198;2022-12-17T03:56:01;-4.10;99.90
8595;DHT22;4335;48.860;9.198;2022-12-17T03:58:49;-4.00;99.90
8595;DHT22;4335;48.860;9.198;2022-12-17T04:01:34;-4.00;99.90
8595;DHT22;4335;48.860;9.198;2022-12-17T04:04:18;-4.00;99.90
8595;DHT22;4335;48.860;9.198;2022-12-17T04:07:04;-3.90;99.90
8595;DHT22;4335;48.860;9.198;2022-12-17T04:09:52;-3.90;99.90
8595;DHT22;4335;48.860;9.198;2022-12-17T04:12:36;-3.90;99.90
8595;DHT22;4335;48.860;9.198;2022-12-17T04:15:21;-3.90;99.90
8595;DHT22;4335;48.860;9.198;2022-12-17T04:18:20;-3.80;99.90
8595;DHT22;4335;48.860;9.198;2022-12-17T04:21:05;-3.80;99.90
8595;DHT22;4335;48.860;9.198;2022-12-17T04:23:54;-3.90;99.90
8595;DHT22;4335;48.860;9.198;2022-12-17T04:26:39;-3.90;99.90
8595;DHT22;4335;48.860;9.198;2022-12-17T04:29:23;-3.90;99.90
8595;DHT22;4335;48.860;9.198;2022-12-17T04:32:08;-3.90;99.90
8595;DHT22;4335;48.860;9.198;2022-12-17T04:34:52;-3.90;99.90
8595;DHT22;4335;48.860;9.198;2022-12-17T04:37:40;-3.80;99.90
8595;DHT22;4335;48.860;9.198;2022-12-17T04:40:26;-3.80;99.90
8595;DHT22;4335;48.860;9.198;2022-12-17T04:43:11;-3.80;99.90
8595;DHT22;4335;48.860;9.198;2022-12-17T04:45:57;-3.80;99.90
8595;DHT22;4335;48.860;9.198;2022-12-17T04:48:46;-3.80;99.90
8595;DHT22;4335;48.860;9.198;2022-12-17T04:51:34;-3.80;99.90
8595;DHT22;4335;48.860;9.198;2022-12-17T04:54:19;-3.80;99.90
8595;DHT22;4335;48.860;9.198;2022-12-17T04:57:05;-3.80;99.90
8595;DHT22;4335;48.860;9.198;2022-12-17T05:00:02;-3.80;99.90
8595;DHT22;4335;48.860;9.198;2022-12-17T05:02:47;-3.80;99.90
8595;DHT22;4335;48.860;9.198;2022-12-17T05:05:31;-3.80;99.90
8595;DHT22;4335;48.860;9.198;2022-12-17T05:08:16;-3.70;99.90
8595;DHT22;4335;48.860;9.198;2022-12-17T05:11:04;-3.70;99.90
8595;DHT22;4335;48.860;9.198;2022-12-17T05:13:56;-3.80;99.90
8595;DHT22;4335;48.860;9.198;2022-12-17T05:16:41;-3.80;99.90
8595;DHT22;4335;48.860;9.198;2022-12-17T05:19:30;-3.90;99.90
8595;DHT22;4335;48.860;9.198;2022-12-17T05:22:14;-3.90;99.90
8595;DHT22;4335;48.860;9.198;2022-12-17T05:25:02;-3.90;99.90
8595;DHT22;4335;48.860;9.198;2022-12-17T05:27:47;-4.00;99.90
8595;DHT22;4335;48.860;9.198;2022-12-17T05:30:33;-4.00;99.90
8595;DHT22;4335;48.860;9.198;2022-12-17T05:33:18;-4.00;99.90
8595;DHT22;4335;48.860;9.198;2022-12-17T05:36:03;-3.90;99.90
8595;DHT22;4335;48.860;9.198;2022-12-17T05:38:48;-4.00;99.90
8595;DHT22;4335;48.860;9.198;2022-12-17T05:41:34;-4.00;99.90
8595;DHT22;4335;48.860;9.198;2022-12-17T05:44:18;-3.90;99.90
8595;DHT22;4335;48.860;9.198;2022-12-17T05:47:13;-4.00;99.90
8595;DHT22;4335;48.860;9.198;2022-12-17T05:50:04;-4.00;99.90
8595;DHT22;4335;48.860;9.198;2022-12-17T05:52:48;-4.00;99.90
8595;DHT22;4335;48.860;9.198;2022-12-17T05:55:33;-4.00;99.90
8595;DHT22;4335;48.860;9.198;2022-12-17T05:58:17;-4.00;99.90
8595;DHT22;4335;48.860;9.198;2022-12-17T06:01:17;-4.00;99.90
8595;DHT22;4335;48.860;9.198;2022-12-17T06:04:03;-4.00;99.90
8595;DHT22;4335;48.860;9.198;2022-12-17T06:06:47;-3.90;99.90
8595;DHT22;4335;48.860;9.198;2022-12-17T06:09:32;-3.90;99.90
8595;DHT22;4335;48.860;9.198;2022-12-17T06:12:17;-3.90;99.90
8595;DHT22;4335;48.860;9.198;2022-12-17T06:15:01;-3.90;99.90
8595;DHT22;4335;48.860;9.198;2022-12-17T06:17:52;-3.90;99.90
8595;DHT22;4335;48.860;9.198;2022-12-17T06:20:38;-3.90;99.90
8595;DHT22;4335;48.860;9.198;2022-12-17T06:23:22;-3.90;99.90
8595;DHT22;4335;48.860;9.198;2022-12-17T06:26:07;-4.00;99.90
8595;DHT22;4335;48.860;9.198;2022-12-17T06:28:52;-3.90;99.90
8595;DHT22;4335;48.860;9.198;2022-12-17T06:31:36;-3.90;99.90
8595;DHT22;4335;48.860;9.198;2022-12-17T06:34:21;-3.80;99.90
8595;DHT22;4335;48.860;9.198;2022-12-17T06:37:10;-3.70;99.90
8595;DHT22;4335;48.860;9.198;2022-12-17T06:39:55;-3.40;99.90
8595;DHT22;4335;48.860;9.198;2022-12-17T06:42:39;-3.10;99.90
8595;DHT22;4335;48.860;9.198;2022-12-17T06:45:27;-2.90;99.90
8595;DHT22;4335;48.860;9.198;2022-12-17T06:48:18;-2.90;99.90
8595;DHT22;4335;48.860;9.198;2022-12-17T06:51:09;-2.90;99.90
8595;DHT22;4335;48.860;9.198;2022-12-17T06:53:55;-2.70;99.90
8595;DHT22;4335;48.860;9.198;2022-12-17T06:56:42;-2.70;99.90
8595;DHT22;4335;48.860;9.198;2022-12-17T06:59:27;-2.70;99.90
8595;DHT22;4335;48.860;9.198;2022-12-17T07:02:11;-3.00;99.90
8595;DHT22;4335;48.860;9.198;2022-12-17T07:04:56;-3.10;99.90
8595;DHT22;4335;48.860;9.198;2022-12-17T07:07:41;-3.20;99.90
8595;DHT22;4335;48.860;9.198;2022-12-17T07:10:29;-3.20;99.90
8595;DHT22;4335;48.860;9.198;2022-12-17T07:13:17;-3.30;99.90
8595;DHT22;4335;48.860;9.198;2022-12-17T07:16:02;-3.30;99.90
8595;DHT22;4335;48.860;9.198;2022-12-17T07:18:49;-3.40;99.90
8595;DHT22;4335;48.860;9.198;2022-12-17T07:21:34;-3.40;99.90
8595;DHT22;4335;48.860;9.198;2022-12-17T07:24:22;-3.40;99.90
8595;DHT22;4335;48.860;9.198;2022-12-17T07:27:08;-3.50;99.90
8595;DHT22;4335;48.860;9.198;2022-12-17T07:29:55;-3.50;99.90
8595;DHT22;4335;48.860;9.198;2022-12-17T07:32:40;-3.60;99.90
8595;DHT22;4335;48.860;9.198;2022-12-17T07:35:33;-3.60;99.90
8595;DHT22;4335;48.860;9.198;2022-12-17T07:38:18;-3.60;99.90
8595;DHT22;4335;48.860;9.198;2022-12-17T07:41:02;-3.70;99.90
8595;DHT22;4335;48.860;9.198;2022-12-17T07:43:48;-3.70;99.90
8595;DHT22;4335;48.860;9.198;2022-12-17T07:46:33;-3.80;99.90
8595;DHT22;4335;48.860;9.198;2022-12-17T07:49:23;-3.70;99.90
8595;DHT22;4335;48.860;9.198;2022-12-17T07:52:07;-3.70;99.90
8595;DHT22;4335;48.860;9.198;2022-12-17T07:54:51;-3.80;99.90
8595;DHT22;4335;48.860;9.198;2022-12-17T07:57:42;-3.90;99.90
8595;DHT22;4335;48.860;9.198;2022-12-17T08:00:30;-3.80;99.90
8595;DHT22;4335;48.860;9.198;2022-12-17T08:03:17;-3.80;99.90
8595;DHT22;4335;48.860;9.198;2022-12-17T08:08:41;-3.70;99.90
8595;DHT22;4335;48.860;9.198;2022-12-17T08:11:28;-3.70;99.90
8595;DHT22;4335;48.860;9.198;2022-12-17T08:14:13;-3.70;99.90
8595;DHT22;4335;48.860;9.198;2022-12-17T08:17:02;-3.60;99.90
8595;DHT22;4335;48.860;9.198;2022-12-17T08:19:48;-3.50;99.90
8595;DHT22;4335;48.860;9.198;2022-12-17T08:22:33;-3.40;99.90
8595;DHT22;4335;48.860;9.198;2022-12-17T08:25:18;-3.40;99.90
8595;DHT22;4335;48.860;9.198;2022-12-17T08:28:05;-3.40;99.90
8595;DHT22;4335;48.860;9.198;2022-12-17T08:30:52;-3.50;99.90
8595;DHT22;4335;48.860;9.198;2022-12-17T08:33:38;-3.50;99.90
8595;DHT22;4335;48.860;9.198;2022-12-17T08:36:23;-3.40;99.90
8595;DHT22;4335;48.860;9.198;2022-12-17T08:39:16;-3.40;99.90
8595;DHT22;4335;48.860;9.198;2022-12-17T08:42:07;-3.30;99.90
8595;DHT22;4335;48.860;9.198;2022-12-17T08:44:55;-3.40;99.90
8595;DHT22;4335;48.860;9.198;2022-12-17T08:47:43;-3.30;99.90
8595;DHT22;4335;48.860;9.198;2022-12-17T08:50:29;-3.40;99.90
8595;DHT22;4335;48.860;9.198;2022-12-17T08:53:14;-3.30;99.90
8595;DHT22;4335;48.860;9.198;2022-12-17T08:55:58;-3.20;99.90
8595;DHT22;4335;48.860;9.198;2022-12-17T08:58:43;-3.10;99.90
8595;DHT22;4335;48.860;9.198;2022-12-17T09:01:27;-3.10;99.90
8595;DHT22;4335;48.860;9.198;2022-12-17T09:04:15;-3.10;99.90
8595;DHT22;4335;48.860;9.198;2022-12-17T09:07:01;-3.00;99.90
8595;DHT22;4335;48.860;9.198;2022-12-17T09:09:46;-3.00;99.90
8595;DHT22;4335;48.860;9.198;2022-12-17T09:12:30;-3.00;99.90
8595;DHT22;4335;48.860;9.198;2022-12-17T09:15:15;-2.90;99.90
8595;DHT22;4335;48.860;9.198;2022-12-17T09:17:59;-2.90;99.90
8595;DHT22;4335;48.860;9.198;2022-12-17T09:20:51;-2.90;99.90
8595;DHT22;4335;48.860;9.198;2022-12-17T09:23:43;-2.80;99.90
8595;DHT22;4335;48.860;9.198;2022-12-17T09:26:28;-2.80;99.90
8595;DHT22;4335;48.860;9.198;2022-12-17T09:29:13;-2.80;99.90
8595;DHT22;4335;48.860;9.198;2022-12-17T09:31:58;-2.70;99.90
8595;DHT22;4335;48.860;9.198;2022-12-17T09:34:58;-2.60;99.90
8595;DHT22;4335;48.860;9.198;2022-12-17T09:37:42;-2.50;99.90
8595;DHT22;4335;48.860;9.198;2022-12-17T09:40:31;-2.50;99.90
8595;DHT22;4335;48.860;9.198;2022-12-17T09:43:23;-2.40;99.90
8595;DHT22;4335;48.860;9.198;2022-12-17T09:46:17;-2.40;99.90
8595;DHT22;4335;48.860;9.198;2022-12-17T09:49:13;-2.50;99.90
8595;DHT22;4335;48.860;9.198;2022-12-17T09:51:59;-2.50;99.90
8595;DHT22;4335;48.860;9.198;2022-12-17T09:54:49;-2.50;99.90
8595;DHT22;4335;48.860;9.198;2022-12-17T09:57:42;-2.40;99.90
8595;DHT22;4335;48.860;9.198;2022-12-17T10:00:28;-2.40;99.90
8595;DHT22;4335;48.860;9.198;2022-12-17T10:03:15;-2.40;99.90
8595;DHT22;4335;48.860;9.198;2022-12-17T10:06:07;-2.40;99.90
8595;DHT22;4335;48.860;9.198;2022-12-17T10:08:57;-2.40;99.90
8595;DHT22;4335;48.860;9.198;2022-12-17T10:11:42;-2.30;99.90
8595;DHT22;4335;48.860;9.198;2022-12-17T10:14:30;-2.30;99.90
8595;DHT22;4335;48.860;9.198;2022-12-17T10:17:16;-2.30;99.90
8595;DHT22;4335;48.860;9.198;2022-12-17T10:20:15;-2.30;99.90
8595;DHT22;4335;48.860;9.198;2022-12-17T10:23:03;-2.30;99.90
8595;DHT22;4335;48.860;9.198;2022-12-17T10:25:57;-2.20;99.90
8595;DHT22;4335;48.860;9.198;2022-12-17T10:28:42;-2.10;99.90
8595;DHT22;4335;48.860;9.198;2022-12-17T10:31:29;-2.00;99.90
8595;DHT22;4335;48.860;9.198;2022-12-17T10:34:15;-1.90;99.90
8595;DHT22;4335;48.860;9.198;2022-12-17T10:37:05;-1.90;99.90
8595;DHT22;4335;48.860;9.198;2022-12-17T10:39:55;-2.00;99.90
8595;DHT22;4335;48.860;9.198;2022-12-17T10:42:40;-1.90;99.90
8595;DHT22;4335;48.860;9.198;2022-12-17T10:45:30;-1.80;99.90
8595;DHT22;4335;48.860;9.198;2022-12-17T10:48:27;-1.80;99.90
8595;DHT22;4335;48.860;9.198;2022-12-17T10:51:25;-1.70;99.90
8595;DHT22;4335;48.860;9.198;2022-12-17T10:54:23;-1.70;99.90
8595;DHT22;4335;48.860;9.198;2022-12-17T10:57:23;-1.70;99.90
8595;DHT22;4335;48.860;9.198;2022-12-17T11:00:22;-1.70;99.90
8595;DHT22;4335;48.860;9.198;2022-12-17T11:03:26;-1.60;99.90
8595;DHT22;4335;48.860;9.198;2022-12-17T11:06:12;-1.60;99.90
8595;DHT22;4335;48.860;9.198;2022-12-17T11:08:59;-1.60;99.90
8595;DHT22;4335;48.860;9.198;2022-12-17T11:11:46;-1.60;99.90
8595;DHT22;4335;48.860;9.198;2022-12-17T11:14:33;-1.80;99.90
8595;DHT22;4335;48.860;9.198;2022-12-17T11:17:25;-1.70;99.90
8595;DHT22;4335;48.860;9.198;2022-12-17T11:20:21;-1.70;99.90
8595;DHT22;4335;48.860;9.198;2022-12-17T11:23:15;-1.70;99.90
8595;DHT22;4335;48.860;9.198;2022-12-17T11:26:06;-1.70;99.90
8595;DHT22;4335;48.860;9.198;2022-12-17T11:28:52;-1.70;99.90
8595;DHT22;4335;48.860;9.198;2022-12-17T11:31:57;-1.80;99.90
8595;DHT22;4335;48.860;9.198;2022-12-17T11:35:05;-1.80;99.90
8595;DHT22;4335;48.860;9.198;2022-12-17T11:38:04;-1.70;99.90
8595;DHT22;4335;48.860;9.198;2022-12-17T11:40:56;-1.70;99.90
8595;DHT22;4335;48.860;9.198;2022-12-17T11:43:48;-1.70;99.90
8595;DHT22;4335;48.860;9.198;2022-12-17T11:46:48;-1.70;99.90
8595;DHT22;4335;48.860;9.198;2022-12-17T11:49:41;-1.70;99.90
8595;DHT22;4335;48.860;9.198;2022-12-17T11:52:35;-1.60;99.90
8595;DHT22;4335;48.860;9.198;2022-12-17T11:55:32;-1.60;99.90
8595;DHT22;4335;48.860;9.198;2022-12-17T11:58:24;-1.70;99.90
8595;DHT22;4335;48.860;9.198;2022-12-17T12:01:19;-1.70;99.90
8595;DHT22;4335;48.860;9.198;2022-12-17T12:04:20;-1.70;99.90
8595;DHT22;4335;48.860;9.198;2022-12-17T12:07:13;-1.90;99.90
8595;DHT22;4335;48.860;9.198;2022-12-17T12:10:02;-1.90;99.90
8595;DHT22;4335;48.860;9.198;2022-12-17T12:12:59;-1.90;99.90
8595;DHT22;4335;48.860;9.198;2022-12-17T12:15:54;-1.90;99.90
8595;DHT22;4335;48.860;9.198;2022-12-17T12:18:56;-1.90;99.90
8595;DHT22;4335;48.860;9.198;2022-12-17T12:21:54;-1.80;99.90
8595;DHT22;4335;48.860;9.198;2022-12-17T12:24:56;-1.80;99.90
8595;DHT22;4335;48.860;9.198;2022-12-17T12:27:54;-1.90;99.90
8595;DHT22;4335;48.860;9.198;2022-12-17T12:30:49;-2.00;99.90
8595;DHT22;4335;48.860;9.198;2022-12-17T12:33:44;-2.00;99.90
8595;DHT22;4335;48.860;9.198;2022-12-17T12:36:30;-2.00;99.90
8595;DHT22;4335;48.860;9.198;2022-12-17T12:39:24;-2.10;99.90
8595;DHT22;4335;48.860;9.198;2022-12-17T12:42:21;-2.00;99.90
8595;DHT22;4335;48.860;9.198;2022-12-17T12:45:28;-2.00;99.90
8595;DHT22;4335;48.860;9.198;2022-12-17T12:48:21;-1.90;99.90
8595;DHT22;4335;48.860;9.198;2022-12-17T12:51:14;-1.90;99.90
8595;DHT22;4335;48.860;9.198;2022-12-17T12:54:21;-1.70;99.90
8595;DHT22;4335;48.860;9.198;2022-12-17T12:57:27;-1.70;99.90
8595;DHT22;4335;48.860;9.198;2022-12-17T13:00:27;-1.70;99.90
8595;DHT22;4335;48.860;9.198;2022-12-17T13:03:22;-1.60;99.90
8595;DHT22;4335;48.860;9.198;2022-12-17T13:06:08;-1.60;99.90
8595;DHT22;4335;48.860;9.198;2022-12-17T13:08:36;-1.60;99.90
8595;DHT22;4335;48.860;9.198;2022-12-17T13:11:24;-1.50;99.90
8595;DHT22;4335;48.860;9.198;2022-12-17T13:13:57;-1.50;99.90
8595;DHT22;4335;48.860;9.198;2022-12-17T13:16:48;-1.60;99.90
8595;DHT22;4335;48.860;9.198;2022-12-17T13:19:35;-1.60;99.90
8595;DHT22;4335;48.860;9.198;2022-12-17T13:22:10;-1.60;99.90
8595;DHT22;4335;48.860;9.198;2022-12-17T13:24:42;-1.60;99.90
8595;DHT22;4335;48.860;9.198;2022-12-17T13:27:27;-1.60;99.90
8595;DHT22;4335;48.860;9.198;2022-12-17T13:29:58;-1.60;99.90
8595;DHT22;4335;48.860;9.198;2022-12-17T13:32:44;-1.60;99.90
8595;DHT22;4335;48.860;9.198;2022-12-17T13:35:23;-1.60;99.90
8595;DHT22;4335;48.860;9.198;2022-12-17T13:38:00;-1.70;99.90
8595;DHT22;4335;48.860;9.198;2022-12-17T13:40:44;-1.80;99.90
8595;DHT22;4335;48.860;9.198;2022-12-17T13:43:20;-1.80;99.90
8595;DHT22;4335;48.860;9.198;2022-12-17T13:45:50;-1.90;99.90
8595;DHT22;4335;48.860;9.198;2022-12-17T13:48:24;-1.90;99.90
8595;DHT22;4335;48.860;9.198;2022-12-17T13:50:56;-2.00;99.90
8595;DHT22;4335;48.860;9.198;2022-12-17T13:53:28;-2.10;99.90
8595;DHT22;4335;48.860;9.198;2022-12-17T13:55:58;-2.20;99.90
8595;DHT22;4335;48.860;9.198;2022-12-17T13:58:31;-2.30;99.90
8595;DHT22;4335;48.860;9.198;2022-12-17T14:01:07;-2.40;99.90
8595;DHT22;4335;48.860;9.198;2022-12-17T14:03:48;-2.50;99.90
8595;DHT22;4335;48.860;9.198;2022-12-17T14:06:16;-2.50;99.90
8595;DHT22;4335;48.860;9.198;2022-12-17T14:08:48;-2.50;99.90
8595;DHT22;4335;48.860;9.198;2022-12-17T14:11:16;-2.50;99.90
8595;DHT22;4335;48.860;9.198;2022-12-17T14:14:01;-2.60;99.90
8595;DHT22;4335;48.860;9.198;2022-12-17T14:16:29;-2.60;99.90
8595;DHT22;4335;48.860;9.198;2022-12-17T14:18:58;-2.70;99.90
8595;DHT22;4335;48.860;9.198;2022-12-17T14:21:29;-2.70;99.90
8595;DHT22;4335;48.860;9.198;2022-12-17T14:23:57;-2.80;99.90
8595;DHT22;4335;48.860;9.198;2022-12-17T14:26:27;-2.90;99.90
8595;DHT22;4335;48.860;9.198;2022-12-17T14:28:58;-2.90;99.90
8595;DHT22;4335;48.860;9.198;2022-12-17T14:31:26;-3.00;99.90
8595;DHT22;4335;48.860;9.198;2022-12-17T14:34:02;-2.90;99.90
8595;DHT22;4335;48.860;9.198;2022-12-17T14:36:33;-2.90;99.90
8595;DHT22;4335;48.860;9.198;2022-12-17T14:39:04;-2.90;99.90
8595;DHT22;4335;48.860;9.198;2022-12-17T14:41:37;-2.90;99.90
8595;DHT22;4335;48.860;9.198;2022-12-17T14:44:24;-3.00;99.90
8595;DHT22;4335;48.860;9.198;2022-12-17T14:47:06;-3.00;99.90
8595;DHT22;4335;48.860;9.198;2022-12-17T14:49:38;-3.00;99.90
8595;DHT22;4335;48.860;9.198;2022-12-17T14:52:13;-3.00;99.90
8595;DHT22;4335;48.860;9.198;2022-12-17T14:54:44;-3.10;99.90
8595;DHT22;4335;48.860;9.198;2022-12-17T14:57:19;-3.10;99.90
8595;DHT22;4335;48.860;9.198;2022-12-17T14:59:47;-3.20;99.90
8595;DHT22;4335;48.860;9.198;2022-12-17T15:02:22;-3.20;99.90
8595;DHT22;4335;48.860;9.198;2022-12-17T15:04:56;-3.20;99.90
8595;DHT22;4335;48.860;9.198;2022-12-17T15:07:30;-3.20;99.90
8595;DHT22;4335;48.860;9.198;2022-12-17T15:09:58;-3.20;99.90
8595;DHT22;4335;48.860;9.198;2022-12-17T15:12:28;-3.10;99.90
8595;DHT22;4335;48.860;9.198;2022-12-17T15:14:58;-3.00;99.90
8595;DHT22;4335;48.860;9.198;2022-12-17T15:17:26;-3.00;99.90
8595;DHT22;4335;48.860;9.198;2022-12-17T15:19:54;-3.10;99.90
8595;DHT22;4335;48.860;9.198;2022-12-17T15:22:22;-3.10;99.90
8595;DHT22;4335;48.860;9.198;2022-12-17T15:24:49;-3.20;99.90
8595;DHT22;4335;48.860;9.198;2022-12-17T15:27:18;-3.30;99.90
8595;DHT22;4335;48.860;9.198;2022-12-17T15:29:47;-3.30;99.90
8595;DHT22;4335;48.860;9.198;2022-12-17T15:32:17;-3.40;99.90
8595;DHT22;4335;48.860;9.198;2022-12-17T15:34:45;-3.50;99.90
8595;DHT22;4335;48.860;9.198;2022-12-17T15:37:17;-3.50;99.90
8595;DHT22;4335;48.860;9.198;2022-12-17T15:39:45;-3.60;99.90
8595;DHT22;4335;48.860;9.198;2022-12-17T15:42:12;-3.70;99.90
8595;DHT22;4335;48.860;9.198;2022-12-17T15:44:56;-3.70;99.90
8595;DHT22;4335;48.860;9.198;2022-12-17T15:47:24;-3.80;99.90
8595;DHT22;4335;48.860;9.198;2022-12-17T15:49:55;-3.80;99.90
8595;DHT22;4335;48.860;9.198;2022-12-17T15:52:24;-3.90;99.90
8595;DHT22;4335;48.860;9.198;2022-12-17T15:54:51;-3.90;99.90
8595;DHT22;4335;48.860;9.198;2022-12-17T15:57:19;-4.00;99.90
8595;DHT22;4335;48.860;9.198;2022-12-17T15:59:50;-4.00;99.90
8595;DHT22;4335;48.860;9.198;2022-12-17T16:02:23;-4.10;99.90
8595;DHT22;4335;48.860;9.198;2022-12-17T16:04:50;-4.10;99.90
8595;DHT22;4335;48.860;9.198;2022-12-17T16:07:18;-4.10;99.90
8595;DHT22;4335;48.860;9.198;2022-12-17T16:09:46;-4.10;99.90
8595;DHT22;4335;48.860;9.198;2022-12-17T16:12:15;-4.10;99.90
8595;DHT22;4335;48.860;9.198;2022-12-17T16:14:42;-4.10;99.90
8595;DHT22;4335;48.860;9.198;2022-12-17T16:17:10;-4.20;99.90
8595;DHT22;4335;48.860;9.198;2022-12-17T16:19:37;-4.20;99.90
8595;DHT22;4335;48.860;9.198;2022-12-17T16:22:05;-4.20;99.90
8595;DHT22;4335;48.860;9.198;2022-12-17T16:24:32;-4.20;99.90
8595;DHT22;4335;48.860;9.198;2022-12-17T16:27:02;-4.20;99.90
8595;DHT22;4335;48.860;9.198;2022-12-17T16:29:35;-4.30;99.90
8595;DHT22;4335;48.860;9.198;2022-12-17T16:32:03;-4.30;99.90
8595;DHT22;4335;48.860;9.198;2022-12-17T16:34:30;-4.30;99.90
8595;DHT22;4335;48.860;9.198;2022-12-17T16:37:00;-4.40;99.90
8595;DHT22;4335;48.860;9.198;2022-12-17T16:39:28;-4.40;99.90
8595;DHT22;4335;48.860;9.198;2022-12-17T16:41:58;-4.40;99.90
8595;DHT22;4335;48.860;9.198;2022-12-17T16:44:27;-4.40;99.90
8595;DHT22;4335;48.860;9.198;2022-12-17T16:46:55;-4.40;99.90
8595;DHT22;4335;48.860;9.198;2022-12-17T16:49:23;-4.50;99.90
8595;DHT22;4335;48.860;9.198;2022-12-17T16:51:51;-4.50;99.90
8595;DHT22;4335;48.860;9.198;2022-12-17T16:54:21;-4.50;99.90
8595;DHT22;4335;48.860;9.198;2022-12-17T16:56:51;-4.50;99.90
8595;DHT22;4335;48.860;9.198;2022-12-17T16:59:19;-4.60;99.90
8595;DHT22;4335;48.860;9.198;2022-12-17T17:01:50;-4.60;99.90
8595;DHT22;4335;48.860;9.198;2022-12-17T17:04:21;-4.60;99.90
8595;DHT22;4335;48.860;9.198;2022-12-17T17:06:55;-4.60;99.90
8595;DHT22;4335;48.860;9.198;2022-12-17T17:09:24;-4.70;99.90
8595;DHT22;4335;48.860;9.198;2022-12-17T17:11:56;-4.70;99.90
8595;DHT22;4335;48.860;9.198;2022-12-17T17:14:26;-4.70;99.90
8595;DHT22;4335;48.860;9.198;2022-12-17T17:16:55;-4.80;99.90
8595;DHT22;4335;48.860;9.198;2022-12-17T17:19:26;-4.80;99.90
8595;DHT22;4335;48.860;9.198;2022-12-17T17:21:53;-4.80;99.90
8595;DHT22;4335;48.860;9.198;2022-12-17T17:24:30;-4.80;99.90
8595;DHT22;4335;48.860;9.198;2022-12-17T17:26:57;-4.80;99.90
8595;DHT22;4335;48.860;9.198;2022-12-17T17:29:28;-4.90;99.90
8595;DHT22;4335;48.860;9.198;2022-12-17T17:31:57;-4.90;99.90
8595;DHT22;4335;48.860;9.198;2022-12-17T17:34:24;-4.90;99.90
8595;DHT22;4335;48.860;9.198;2022-12-17T17:36:51;-4.90;99.90
8595;DHT22;4335;48.860;9.198;2022-12-17T17:39:19;-4.90;99.90
8595;DHT22;4335;48.860;9.198;2022-12-17T17:41:46;-4.90;99.90
8595;DHT22;4335;48.860;9.198;2022-12-17T17:44:17;-4.90;99.90
8595;DHT22;4335;48.860;9.198;2022-12-17T17:46:44;-5.00;99.90
8595;DHT22;4335;48.860;9.198;2022-12-17T17:49:16;-5.00;99.90
8595;DHT22;4335;48.860;9.198;2022-12-17T17:51:43;-5.00;99.90